createdAt,value
2022-11-02T00:02:15.195Z,2.67
2022-11-02T00:04:41.825Z,2.17
2022-11-02T00:07:08.329Z,2.65
2022-11-02T00:09:34.785Z,2.40
2022-11-02T00:12:01.330Z,2.15
2022-11-02T00:14:27.850Z,2.70
2022-11-02T00:16:54.401Z,2.58
2022-11-02T00:19:21.123Z,2.42
2022-11-02T00:21:50.146Z,2.42
2022-11-02T00:24:16.635Z,2.80
2022-11-02T00:26:43.068Z,2.60
2022-11-02T00:29:09.703Z,2.60
2022-11-02T00:31:38.750Z,2.30
2022-11-02T00:34:07.969Z,2.00
2022-11-02T00:36:34.508Z,2.58
2022-11-02T00:39:00.996Z,2.47
2022-11-02T00:41:30.355Z,2.55
2022-11-02T00:43:56.810Z,2.88
2022-11-02T00:46:23.270Z,2.28
2022-11-02T00:48:49.769Z,2.33
2022-11-02T00:51:16.289Z,2.72
2022-11-02T00:53:42.787Z,2.80
2022-11-02T00:56:09.302Z,2.55
2022-11-02T00:58:35.748Z,2.28
2022-11-02T01:01:06.652Z,2.53
2022-11-02T01:03:33.471Z,2.45
2022-11-02T01:06:00.029Z,2.50
2022-11-02T01:08:26.477Z,3.03
2022-11-02T01:10:52.989Z,2.60
2022-11-02T01:13:22.990Z,2.47
2022-11-02T01:15:49.500Z,2.80
2022-11-02T01:18:15.989Z,2.97
2022-11-02T01:20:42.430Z,2.63
2022-11-02T01:23:08.930Z,2.47
2022-11-02T01:25:35.399Z,3.15
2022-11-02T01:28:02.111Z,3.03
2022-11-02T01:30:28.794Z,2.65
2022-11-02T01:32:58.071Z,2.47
2022-11-02T01:35:27.101Z,2.45
2022-11-02T01:37:56.347Z,2.53
2022-11-02T01:40:23.042Z,2.90
2022-11-02T01:42:49.562Z,2.50
2022-11-02T01:45:16.013Z,2.78
2022-11-02T01:47:46.182Z,2.63
2022-11-02T01:50:29.140Z,2.30
2022-11-02T01:52:58.385Z,2.45
2022-11-02T01:55:29.733Z,2.58
2022-11-02T01:57:59.823Z,2.78
2022-11-02T02:00:26.569Z,2.65
2022-11-02T02:03:06.187Z,2.70
2022-11-02T02:05:35.934Z,2.60
2022-11-02T02:08:04.023Z,2.67
2022-11-02T02:10:30.870Z,2.40
2022-11-02T02:12:57.492Z,2.50
2022-11-02T02:15:28.015Z,2.60
2022-11-02T02:18:03.831Z,2.00
2022-11-02T02:20:58.749Z,3.05
2022-11-02T02:23:49.906Z,2.40
2022-11-02T02:26:36.035Z,2.70
2022-11-02T02:29:12.927Z,2.45
2022-11-02T02:32:13.513Z,2.72
2022-11-02T02:34:51.909Z,2.97
2022-11-02T02:37:26.365Z,2.20
2022-11-02T02:40:19.369Z,2.22
2022-11-02T02:42:57.351Z,2.47
2022-11-02T02:45:37.941Z,2.78
2022-11-02T02:48:14.799Z,2.35
2022-11-02T02:50:48.276Z,2.60
2022-11-02T02:53:16.822Z,2.40
2022-11-02T02:55:46.613Z,2.20
2022-11-02T02:58:19.341Z,2.63
2022-11-02T03:00:46.174Z,2.65
2022-11-02T03:03:18.890Z,2.35
2022-11-02T03:06:01.638Z,2.80
2022-11-02T03:08:28.221Z,3.22
2022-11-02T03:11:15.905Z,2.22
2022-11-02T03:14:06.485Z,2.60
2022-11-02T03:17:11.608Z,2.72
2022-11-02T03:20:02.371Z,2.53
2022-11-02T03:22:50.401Z,2.10
2022-11-02T03:25:22.121Z,3.00
2022-11-02T03:27:48.535Z,2.25
2022-11-02T03:30:19.319Z,2.60
2022-11-02T03:33:19.836Z,2.45
2022-11-02T03:35:58.758Z,2.60
2022-11-02T03:38:42.198Z,2.72
2022-11-02T03:41:09.263Z,2.95
2022-11-02T03:43:38.596Z,2.72
2022-11-02T03:46:08.665Z,2.65
2022-11-02T03:48:40.148Z,2.97
2022-11-02T03:51:12.418Z,2.35
2022-11-02T03:53:48.939Z,2.88
2022-11-02T03:56:36.353Z,2.53
2022-11-02T03:59:03.690Z,2.55
2022-11-02T04:01:37.008Z,3.17
2022-11-02T04:04:04.694Z,2.42
2022-11-02T04:06:32.324Z,2.63
2022-11-02T04:08:59.629Z,2.47
2022-11-02T04:11:45.546Z,2.60
2022-11-02T04:14:31.629Z,2.70
2022-11-02T04:17:19.568Z,2.50
2022-11-02T04:19:49.617Z,2.50
2022-11-02T04:22:39.685Z,2.28
2022-11-02T04:25:16.423Z,2.35
2022-11-02T04:27:42.987Z,2.78
2022-11-02T04:30:10.147Z,2.50
2022-11-02T04:33:00.160Z,2.20
2022-11-02T04:35:26.699Z,2.60
2022-11-02T04:38:11.891Z,2.53
2022-11-02T04:40:38.450Z,2.55
2022-11-02T04:43:05.229Z,2.50
2022-11-02T04:45:31.759Z,2.97
2022-11-02T04:48:07.624Z,2.47
2022-11-02T04:50:35.691Z,2.63
2022-11-02T04:53:04.355Z,2.67
2022-11-02T04:55:34.904Z,2.83
2022-11-02T04:58:01.556Z,2.53
2022-11-02T05:00:28.250Z,2.50
2022-11-02T05:02:54.730Z,2.35
2022-11-02T05:05:29.529Z,2.83
2022-11-02T05:07:56.013Z,2.70
2022-11-02T05:10:22.548Z,2.78
2022-11-02T05:12:48.994Z,2.50
2022-11-02T05:15:15.553Z,2.90
2022-11-02T05:17:42.070Z,2.35
2022-11-02T05:20:09.015Z,3.22
2022-11-02T05:22:35.556Z,2.55
2022-11-02T05:25:02.034Z,2.75
2022-11-02T05:27:31.842Z,2.85
2022-11-02T05:29:58.330Z,2.60
2022-11-02T05:32:24.805Z,2.78
2022-11-02T05:34:51.263Z,2.60
2022-11-02T05:37:17.810Z,2.53
2022-11-02T05:39:47.762Z,3.05
2022-11-02T05:42:16.862Z,2.75
2022-11-02T05:44:43.326Z,2.92
2022-11-02T05:47:09.784Z,2.90
2022-11-02T05:49:36.264Z,2.78
2022-11-02T05:52:02.734Z,2.38
2022-11-02T05:54:29.298Z,2.75
2022-11-02T05:56:57.420Z,3.22
2022-11-02T05:59:24.183Z,3.00
2022-11-02T06:01:50.733Z,2.38
2022-11-02T06:04:17.278Z,2.95
2022-11-02T06:06:44.280Z,2.53
2022-11-02T06:09:10.759Z,2.78
2022-11-02T06:11:37.297Z,3.00
2022-11-02T06:14:04.058Z,2.92
2022-11-02T06:16:31.146Z,2.53
2022-11-02T06:18:57.639Z,2.70
2022-11-02T06:21:24.239Z,2.78
2022-11-02T06:23:50.934Z,2.75
2022-11-02T06:26:17.424Z,2.88
2022-11-02T06:28:43.861Z,2.88
2022-11-02T06:31:10.406Z,2.40
2022-11-02T06:33:36.865Z,3.30
2022-11-02T06:36:03.660Z,2.65
2022-11-02T06:38:30.101Z,3.10
2022-11-02T06:41:05.625Z,2.45
2022-11-02T06:43:33.194Z,3.28
2022-11-02T06:45:59.981Z,2.95
2022-11-02T06:48:34.390Z,2.78
2022-11-02T06:51:01.937Z,2.67
2022-11-02T06:53:28.604Z,2.40
2022-11-02T06:55:56.409Z,3.13
2022-11-02T06:58:24.511Z,3.08
2022-11-02T07:00:56.559Z,3.10
2022-11-02T07:03:23.623Z,2.40
2022-11-02T07:05:52.340Z,2.60
2022-11-02T07:08:19.848Z,3.08
2022-11-02T07:10:46.973Z,2.47
2022-11-02T07:13:13.563Z,2.83
2022-11-02T07:15:40.257Z,3.20
2022-11-02T07:18:08.260Z,2.65
2022-11-02T07:20:35.248Z,2.60
2022-11-02T07:23:02.596Z,2.83
2022-11-02T07:25:31.244Z,2.95
2022-11-02T07:28:04.191Z,3.03
2022-11-02T07:30:36.760Z,2.70
2022-11-02T07:33:03.523Z,2.85
2022-11-02T07:35:30.412Z,2.80
2022-11-02T07:38:07.483Z,3.40
2022-11-02T07:40:36.056Z,3.45
2022-11-02T07:43:04.264Z,3.05
2022-11-02T07:45:31.851Z,3.25
2022-11-02T07:47:58.449Z,3.15
2022-11-02T07:50:27.055Z,3.22
2022-11-02T07:52:55.839Z,2.72
2022-11-02T07:55:30.621Z,3.10
2022-11-02T07:58:09.353Z,3.08
2022-11-02T08:00:40.560Z,2.95
2022-11-02T08:03:09.490Z,2.63
2022-11-02T08:05:39.352Z,3.45
2022-11-02T08:08:16.415Z,3.05
2022-11-02T08:10:44.217Z,2.80
2022-11-02T08:13:13.093Z,3.20
2022-11-02T08:15:39.581Z,2.80
2022-11-02T08:18:09.387Z,3.05
2022-11-02T08:20:36.579Z,3.78
2022-11-02T08:23:04.086Z,3.00
2022-11-02T08:25:31.375Z,3.72
2022-11-02T08:27:59.686Z,2.72
2022-11-02T08:30:28.401Z,2.70
2022-11-02T08:32:57.121Z,3.10
2022-11-02T08:35:24.231Z,2.80
2022-11-02T08:38:00.927Z,2.78
2022-11-02T08:40:27.962Z,2.45
2022-11-02T08:43:02.480Z,2.90
2022-11-02T08:45:35.166Z,2.70
2022-11-02T08:48:09.784Z,2.83
2022-11-02T08:50:36.729Z,2.70
2022-11-02T08:53:04.809Z,3.15
2022-11-02T08:55:31.582Z,3.40
2022-11-02T08:57:59.855Z,2.80
2022-11-02T09:00:29.460Z,2.70
2022-11-02T09:03:12.471Z,3.30
2022-11-02T09:05:44.231Z,2.40
2022-11-02T09:08:19.560Z,3.10
2022-11-02T09:10:49.328Z,2.97
2022-11-02T09:13:18.362Z,2.58
2022-11-02T09:15:44.864Z,2.92
2022-11-02T09:18:11.428Z,2.80
2022-11-02T09:20:38.091Z,2.35
2022-11-02T09:23:04.958Z,2.70
2022-11-02T09:25:31.450Z,2.60
2022-11-02T09:27:58.531Z,2.70
2022-11-02T09:30:26.760Z,2.42
2022-11-02T09:33:01.812Z,2.58
2022-11-02T09:35:30.574Z,2.80
2022-11-02T09:37:57.628Z,2.58
2022-11-02T09:40:27.446Z,2.20
2022-11-02T09:43:17.745Z,2.38
2022-11-02T09:45:53.004Z,2.67
2022-11-02T09:48:28.718Z,2.88
2022-11-02T09:51:08.402Z,2.50
2022-11-02T09:54:19.814Z,2.08
2022-11-02T09:56:48.394Z,2.30
2022-11-02T09:59:24.658Z,2.30
2022-11-02T10:01:57.821Z,2.42
2022-11-02T10:04:42.814Z,2.38
2022-11-02T10:07:09.236Z,2.20
2022-11-02T10:10:15.554Z,2.03
2022-11-02T10:13:19.220Z,2.00
2022-11-02T10:15:48.116Z,2.53
2022-11-02T10:18:23.186Z,2.53
2022-11-02T10:20:53.333Z,2.53
2022-11-02T10:23:44.619Z,2.55
2022-11-02T10:26:19.642Z,2.10
2022-11-02T10:28:49.466Z,2.72
2022-11-02T10:31:29.173Z,2.60
2022-11-02T10:33:58.324Z,2.60
2022-11-02T10:36:39.282Z,2.70
2022-11-02T10:39:17.791Z,2.08
2022-11-02T10:42:20.808Z,2.40
2022-11-02T10:44:53.296Z,2.47
2022-11-02T10:47:33.363Z,1.92
2022-11-02T10:50:33.918Z,1.80
2022-11-02T10:53:27.214Z,2.10
2022-11-02T10:56:07.540Z,2.28
2022-11-02T10:58:36.631Z,2.47
2022-11-02T11:01:11.975Z,2.10
2022-11-02T11:04:02.119Z,1.92
2022-11-02T11:06:37.951Z,2.05
2022-11-02T11:09:15.122Z,2.22
2022-11-02T11:11:41.817Z,1.90
2022-11-02T11:20:07.526Z,1.90
2022-11-02T11:22:39.460Z,2.45
2022-11-02T11:25:27.876Z,2.50
2022-11-02T11:28:02.098Z,2.22
2022-11-02T11:33:21.470Z,1.73
2022-11-02T11:35:50.579Z,2.35
2022-11-02T11:38:23.859Z,1.90
2022-11-02T11:40:54.849Z,1.80
2022-11-02T11:43:25.857Z,1.85
2022-11-02T11:46:05.319Z,1.77
2022-11-02T11:48:32.575Z,1.67
2022-11-02T11:51:01.588Z,1.92
2022-11-02T11:53:32.026Z,1.98
2022-11-02T11:56:00.515Z,2.15
2022-11-02T11:58:32.314Z,1.58
2022-11-02T12:01:07.397Z,1.70
2022-11-02T12:03:53.334Z,1.60
2022-11-02T12:06:38.408Z,1.65
2022-11-02T12:09:32.541Z,1.75
2022-11-02T12:12:21.713Z,1.33
2022-11-02T12:15:07.205Z,1.67
2022-11-02T12:17:55.632Z,1.80
2022-11-02T12:20:53.134Z,1.38
2022-11-02T12:23:39.177Z,2.00
2022-11-02T12:26:28.615Z,1.50
2022-11-02T12:29:33.324Z,1.70
2022-11-02T12:32:08.943Z,1.35
2022-11-02T12:35:27.686Z,1.85
2022-11-02T12:38:27.821Z,1.67
2022-11-02T12:41:03.796Z,1.60
2022-11-02T12:43:50.071Z,1.58
2022-11-02T12:46:22.557Z,1.70
2022-11-02T12:49:26.766Z,1.70
2022-11-02T12:52:13.520Z,1.42
2022-11-02T12:54:45.340Z,1.40
2022-11-02T12:57:15.887Z,1.52
2022-11-02T12:59:44.667Z,1.55
2022-11-02T13:02:40.351Z,1.58
2022-11-02T13:05:14.603Z,1.60
2022-11-02T13:07:50.600Z,1.92
2022-11-02T13:10:53.906Z,1.40
2022-11-02T13:13:30.805Z,1.63
2022-11-02T13:15:59.821Z,1.38
2022-11-02T13:18:42.639Z,1.55
2022-11-02T13:21:12.176Z,1.83
2022-11-02T13:23:49.836Z,1.50
2022-11-02T13:26:37.914Z,1.60
2022-11-02T13:29:25.794Z,1.40
2022-11-02T13:32:24.985Z,1.83
2022-11-02T13:34:55.449Z,1.50
2022-11-02T13:37:34.906Z,1.50
2022-11-02T13:40:27.282Z,1.70
2022-11-02T13:43:10.489Z,1.90
2022-11-02T13:46:03.492Z,1.77
2022-11-02T13:48:54.271Z,1.40
2022-11-02T13:51:36.824Z,1.77
2022-11-02T13:54:18.955Z,1.85
2022-11-02T13:59:29.412Z,1.65
2022-11-02T14:01:58.101Z,2.10
2022-11-02T14:04:26.141Z,1.70
2022-11-02T14:06:55.137Z,1.50
2022-11-02T14:09:27.435Z,1.85
2022-11-02T14:12:22.624Z,1.77
2022-11-02T14:15:14.196Z,1.95
2022-11-02T14:17:52.961Z,1.42
2022-11-02T14:20:47.367Z,1.65
2022-11-02T14:23:18.455Z,1.90
2022-11-02T14:25:49.935Z,1.50
2022-11-02T14:28:22.631Z,1.60
2022-11-02T14:30:51.643Z,1.90
2022-11-02T14:33:40.904Z,1.75
2022-11-02T14:36:39.266Z,1.60
2022-11-02T14:39:08.622Z,1.60
2022-11-02T14:42:05.160Z,1.75
2022-11-02T14:45:05.035Z,1.80
2022-11-02T14:47:35.202Z,1.55
2022-11-02T14:50:21.987Z,1.55
2022-11-02T14:53:06.148Z,1.85
2022-11-02T14:55:35.809Z,1.50
2022-11-02T14:58:15.382Z,1.40
2022-11-02T15:00:48.200Z,1.60
2022-11-02T15:03:37.595Z,1.60
2022-11-02T15:06:06.726Z,1.73
2022-11-02T15:08:42.227Z,1.60
2022-11-02T15:11:45.916Z,1.73
2022-11-02T15:14:42.039Z,1.80
2022-11-02T15:17:28.753Z,1.73
2022-11-02T15:19:58.277Z,1.90
2022-11-02T15:22:39.893Z,1.58
2022-11-02T15:25:17.028Z,1.80
2022-11-02T15:27:44.972Z,1.80
2022-11-02T15:30:17.208Z,2.03
2022-11-02T15:32:47.909Z,1.70
2022-11-02T15:35:21.631Z,1.80
2022-11-02T15:38:15.755Z,1.70
2022-11-02T15:40:50.381Z,1.90
2022-11-02T15:43:45.008Z,1.83
2022-11-02T15:46:17.616Z,1.63
2022-11-02T15:49:12.236Z,2.10
2022-11-02T15:51:50.993Z,2.00
2022-11-02T15:54:31.279Z,2.38
2022-11-02T15:57:27.390Z,1.98
2022-11-02T16:00:02.511Z,2.10
2022-11-02T16:02:36.216Z,1.83
2022-11-02T16:05:05.951Z,2.08
2022-11-02T16:08:05.028Z,1.83
2022-11-02T16:10:25.480Z,1.83
2022-11-02T16:13:10.080Z,1.90
2022-11-02T16:15:37.280Z,2.35
2022-11-02T16:18:04.322Z,1.80
2022-11-02T16:20:34.851Z,2.03
2022-11-02T16:23:06.875Z,1.90
2022-11-02T16:28:25.877Z,1.90
2022-11-02T16:31:17.966Z,2.78
2022-11-02T16:33:56.447Z,2.85
2022-11-02T16:36:24.498Z,3.42
2022-11-02T16:39:19.099Z,3.13
2022-11-02T16:41:55.677Z,2.45
2022-11-02T16:44:26.994Z,2.85
2022-11-02T16:47:07.995Z,3.10
2022-11-02T16:49:55.512Z,2.70
2022-11-02T16:52:36.773Z,2.75
2022-11-02T16:55:36.898Z,2.37
2022-11-02T16:58:05.464Z,2.42
2022-11-02T17:00:32.202Z,2.40
2022-11-02T17:03:07.516Z,2.47
2022-11-02T17:05:34.469Z,2.50
2022-11-02T17:08:05.965Z,3.15
2022-11-02T17:10:34.077Z,2.97
2022-11-02T17:13:01.783Z,3.83
2022-11-02T17:15:32.223Z,3.95
2022-11-02T17:18:21.961Z,3.97
2022-11-02T17:21:10.330Z,4.10
2022-11-02T17:23:37.029Z,3.80
2022-11-02T17:26:21.972Z,4.28
2022-11-02T17:28:58.507Z,4.47
2022-11-02T17:31:30.258Z,3.85
2022-11-02T17:34:02.731Z,3.90
2022-11-02T17:36:29.662Z,4.10
2022-11-02T17:39:02.148Z,4.00
2022-11-02T17:41:48.859Z,3.72
2022-11-02T17:44:16.959Z,4.20
2022-11-02T17:46:45.991Z,3.92
2022-11-02T17:49:12.964Z,3.70
2022-11-02T17:51:39.971Z,3.33
2022-11-02T17:54:06.529Z,4.25
2022-11-02T17:56:33.003Z,3.63
2022-11-02T17:58:59.524Z,3.80
2022-11-02T18:01:26.460Z,3.53
2022-11-02T18:03:53.102Z,3.28
2022-11-02T18:06:22.251Z,3.17
2022-11-02T18:09:07.021Z,3.30
2022-11-02T18:11:33.688Z,3.08
2022-11-02T18:14:00.209Z,2.70
2022-11-02T18:16:26.846Z,2.60
2022-11-02T18:18:53.335Z,3.00
2022-11-02T18:21:19.791Z,2.60
2022-11-02T18:23:46.330Z,2.30
2022-11-02T18:26:12.985Z,2.42
2022-11-02T18:28:39.508Z,2.17
2022-11-02T18:31:07.158Z,2.10
2022-11-02T18:33:34.423Z,2.35
2022-11-02T18:36:06.838Z,2.22
2022-11-02T18:38:36.840Z,2.35
2022-11-02T18:41:25.791Z,1.75
2022-11-02T18:43:53.090Z,1.75
2022-11-02T18:46:19.727Z,2.38
2022-11-02T18:48:46.259Z,2.45
2022-11-02T18:51:13.203Z,2.15
2022-11-02T18:53:39.741Z,2.08
2022-11-02T18:56:07.918Z,2.35
2022-11-02T18:58:34.460Z,2.10
2022-11-02T19:01:08.942Z,2.33
2022-11-02T19:03:36.512Z,1.90
2022-11-02T19:06:35.973Z,2.58
2022-11-02T19:09:18.378Z,2.97
2022-11-02T19:12:01.538Z,2.20
2022-11-02T19:14:31.970Z,2.05
2022-11-02T19:16:58.492Z,2.13
2022-11-02T19:19:24.962Z,2.15
2022-11-02T19:21:51.699Z,2.28
2022-11-02T19:24:18.243Z,2.80
2022-11-02T19:26:44.921Z,3.05
2022-11-02T19:29:11.567Z,2.92
2022-11-02T19:31:38.041Z,3.13
2022-11-02T19:34:04.597Z,2.55
2022-11-02T19:36:32.121Z,1.90
2022-11-02T19:39:00.132Z,2.60
2022-11-02T19:41:26.663Z,2.90
2022-11-02T19:43:53.287Z,2.60
2022-11-02T19:46:22.271Z,2.60
2022-11-02T19:48:49.565Z,2.15
2022-11-02T19:51:20.362Z,2.33
2022-11-02T19:53:52.804Z,2.60
2022-11-02T19:56:20.783Z,2.55
2022-11-02T19:58:49.414Z,2.60
2022-11-02T20:01:19.323Z,2.90
2022-11-02T20:03:46.712Z,2.45
2022-11-02T20:06:17.145Z,2.67
2022-11-02T20:08:43.890Z,2.63
2022-11-02T20:11:13.322Z,2.53
2022-11-02T20:13:44.565Z,2.92
2022-11-02T20:16:13.003Z,2.10
2022-11-02T20:18:41.229Z,2.47
2022-11-02T20:21:09.691Z,3.30
2022-11-02T20:23:37.170Z,2.60
2022-11-02T20:26:07.042Z,2.30
2022-11-02T20:28:37.569Z,2.53
2022-11-02T20:31:11.901Z,2.30
2022-11-02T20:33:39.796Z,2.40
2022-11-02T20:36:07.663Z,2.63
2022-11-02T20:38:34.974Z,2.53
2022-11-02T20:41:08.788Z,2.50
2022-11-02T20:43:38.533Z,3.00
2022-11-02T20:46:35.730Z,3.00
2022-11-02T20:49:01.476Z,2.80
2022-11-02T20:51:35.471Z,2.72
2022-11-02T20:54:03.218Z,2.40
2022-11-02T20:56:29.850Z,2.30
2022-11-02T20:58:56.462Z,2.53
2022-11-02T21:01:26.040Z,2.60
2022-11-02T21:03:52.695Z,2.45
2022-11-02T21:06:19.147Z,2.10
2022-11-02T21:08:45.619Z,2.20
2022-11-02T21:11:33.004Z,2.25
2022-11-02T21:13:59.504Z,2.65
2022-11-02T21:16:29.546Z,2.45
2022-11-02T21:18:56.731Z,2.33
2022-11-02T21:21:23.273Z,2.55
2022-11-02T21:23:49.826Z,2.50
2022-11-02T21:26:22.698Z,2.15
2022-11-02T21:28:50.388Z,1.98
2022-11-02T21:31:24.567Z,2.25
2022-11-02T21:33:51.274Z,2.15
2022-11-02T21:36:18.493Z,1.95
2022-11-02T21:38:46.014Z,2.22
2022-11-02T21:41:21.889Z,2.53
2022-11-02T21:43:51.772Z,2.08
2022-11-02T21:46:23.181Z,1.98
2022-11-02T21:48:49.652Z,2.10
2022-11-02T21:51:18.745Z,2.00
2022-11-02T21:53:46.686Z,2.17
2022-11-02T21:56:20.884Z,2.60
2022-11-02T21:58:51.558Z,2.10
2022-11-02T22:01:45.003Z,2.15
2022-11-02T22:04:24.823Z,2.20
2022-11-02T22:06:52.098Z,1.95
2022-11-02T22:09:18.889Z,2.22
2022-11-02T22:11:45.452Z,2.90
2022-11-02T22:14:15.250Z,2.63
2022-11-02T22:16:43.165Z,2.20
2022-11-02T22:19:17.335Z,2.33
2022-11-02T22:21:45.103Z,1.85
2022-11-02T22:24:12.621Z,1.67
2022-11-02T22:26:39.990Z,1.77
2022-11-02T22:29:07.028Z,2.20
2022-11-02T22:31:35.751Z,2.00
2022-11-02T22:34:05.819Z,2.33
2022-11-02T22:36:34.158Z,2.15
2022-11-02T22:39:02.319Z,2.67
2022-11-02T22:41:34.252Z,2.00
2022-11-02T22:44:07.914Z,2.25
2022-11-02T22:46:37.685Z,2.47
2022-11-02T22:49:05.205Z,2.30
2022-11-02T22:51:42.665Z,2.00
2022-11-02T22:54:11.846Z,2.05
2022-11-02T22:56:38.319Z,2.70
2022-11-02T22:59:05.915Z,2.20
2022-11-02T23:01:36.893Z,2.08
2022-11-02T23:04:04.493Z,1.73
2022-11-02T23:06:31.423Z,2.17
2022-11-02T23:09:01.615Z,1.90
2022-11-02T23:11:32.015Z,1.98
2022-11-02T23:14:05.652Z,2.30
2022-11-02T23:16:44.153Z,2.28
2022-11-02T23:19:33.041Z,2.05
2022-11-02T23:22:25.154Z,2.15
2022-11-02T23:25:11.147Z,2.40
2022-11-02T23:28:00.708Z,2.05
2022-11-02T23:30:51.189Z,2.20
2022-11-02T23:33:18.670Z,2.03
2022-11-02T23:36:03.993Z,2.00
2022-11-02T23:38:50.514Z,1.88
2022-11-02T23:41:18.685Z,2.35
2022-11-02T23:43:48.342Z,2.30
2022-11-02T23:46:15.316Z,1.73
2022-11-02T23:48:42.379Z,1.90
2022-11-02T23:51:30.297Z,2.17
2022-11-02T23:54:15.090Z,1.70
2022-11-02T23:56:44.729Z,2.00
2022-11-02T23:59:21.039Z,2.10
